createdAt,value
2023-05-22T00:02:12.074Z,7.03
2023-05-22T00:07:21.247Z,6.40
2023-05-22T00:12:37.689Z,7.03
2023-05-22T00:17:45.976Z,6.83
2023-05-22T00:22:56.336Z,7.30
2023-05-22T00:28:07.190Z,6.73
2023-05-22T00:33:17.410Z,7.07
2023-05-22T00:38:31.166Z,7.90
2023-05-22T00:43:41.425Z,6.63
2023-05-22T00:48:53.277Z,8.47
2023-05-22T00:54:01.767Z,6.10
2023-05-22T00:59:09.734Z,7.40
2023-05-22T01:04:19.161Z,6.80
2023-05-22T01:09:29.089Z,7.40
2023-05-22T01:14:41.153Z,6.73
2023-05-22T01:19:52.263Z,6.50
2023-05-22T01:25:02.607Z,5.90
2023-05-22T01:30:16.796Z,6.13
2023-05-22T01:35:27.039Z,6.10
2023-05-22T01:40:39.777Z,6.70
2023-05-22T01:45:48.734Z,6.40
2023-05-22T01:51:02.571Z,6.90
2023-05-22T01:56:16.845Z,6.10
2023-05-22T02:01:26.513Z,5.90
2023-05-22T02:06:36.176Z,5.83
2023-05-22T02:11:44.703Z,5.70
2023-05-22T02:16:52.516Z,6.27
2023-05-22T02:22:00.293Z,6.40
2023-05-22T02:27:12.288Z,6.40
2023-05-22T02:32:23.122Z,6.60
2023-05-22T02:37:32.878Z,6.60
2023-05-22T02:42:41.032Z,6.10
2023-05-22T02:47:49.210Z,6.23
2023-05-22T02:52:57.503Z,6.83
2023-05-22T02:58:07.701Z,5.90
2023-05-22T03:03:18.492Z,6.90
2023-05-22T03:08:31.439Z,6.47
2023-05-22T03:13:47.092Z,6.50
2023-05-22T03:18:59.821Z,6.67
2023-05-22T03:24:11.738Z,7.60
2023-05-22T03:29:22.961Z,7.63
2023-05-22T03:34:33.834Z,8.60
2023-05-22T03:39:43.176Z,9.67
2023-05-22T03:44:54.208Z,9.87
2023-05-22T03:50:04.138Z,13.13
2023-05-22T03:55:16.887Z,12.63
2023-05-22T04:00:27.833Z,13.47
2023-05-22T04:05:38.652Z,12.00
2023-05-22T04:10:47.612Z,11.87
2023-05-22T04:15:57.797Z,13.47
2023-05-22T04:21:09.006Z,13.87
2023-05-22T04:26:22.058Z,13.77
2023-05-22T04:31:31.456Z,12.97
2023-05-22T04:36:40.825Z,13.67
2023-05-22T04:41:48.465Z,12.23
2023-05-22T04:46:57.684Z,12.30
2023-05-22T04:52:09.135Z,12.90
2023-05-22T04:57:17.910Z,13.67
2023-05-22T05:02:30.932Z,14.43
2023-05-22T05:07:40.612Z,13.20
2023-05-22T05:12:49.576Z,11.50
2023-05-22T05:17:59.215Z,11.83
2023-05-22T05:23:09.678Z,11.13
2023-05-22T05:28:19.545Z,9.50
2023-05-22T05:33:33.026Z,11.03
2023-05-22T05:38:42.496Z,8.37
2023-05-22T05:43:53.115Z,22.97
2023-05-22T05:49:06.132Z,7.97
2023-05-22T05:54:17.873Z,9.13
2023-05-22T05:59:26.492Z,9.77
2023-05-22T06:04:37.575Z,7.43
2023-05-22T06:09:45.659Z,7.37
2023-05-22T06:14:57.381Z,8.83
2023-05-22T06:20:07.632Z,7.60
2023-05-22T06:25:16.688Z,7.60
2023-05-22T06:30:39.018Z,5.73
2023-05-22T06:35:37.089Z,5.87
2023-05-22T06:40:45.632Z,6.53
2023-05-22T06:45:55.919Z,5.20
2023-05-22T06:51:05.031Z,6.20
2023-05-22T06:56:13.866Z,5.93
2023-05-22T07:01:26.507Z,6.60
2023-05-22T07:06:38.594Z,6.07
2023-05-22T07:11:47.259Z,5.80
2023-05-22T07:16:57.191Z,5.70
2023-05-22T07:22:07.310Z,6.97
2023-05-22T07:27:18.797Z,6.27
2023-05-22T07:32:27.672Z,6.20
2023-05-22T07:37:39.517Z,5.83
2023-05-22T07:42:49.480Z,5.63
2023-05-22T07:47:59.695Z,6.23
2023-05-22T07:53:08.521Z,5.97
2023-05-22T07:58:19.142Z,6.80
2023-05-22T08:03:29.086Z,5.70
2023-05-22T08:08:42.011Z,5.30
2023-05-22T08:13:50.472Z,4.97
2023-05-22T08:18:58.756Z,5.50
2023-05-22T08:24:10.515Z,5.20
2023-05-22T08:29:21.256Z,5.53
2023-05-22T08:34:30.687Z,5.10
2023-05-22T08:39:42.000Z,5.70
2023-05-22T08:44:54.196Z,5.40
2023-05-22T08:50:08.285Z,4.97
2023-05-22T08:55:19.875Z,5.50
2023-05-22T09:00:34.035Z,5.20
2023-05-22T09:05:42.609Z,5.23
2023-05-22T09:10:50.863Z,5.00
2023-05-22T09:16:14.414Z,5.40
2023-05-22T09:21:38.775Z,5.23
2023-05-22T09:26:47.866Z,5.07
2023-05-22T09:31:57.449Z,5.27
2023-05-22T09:37:05.635Z,4.93
2023-05-22T09:42:19.930Z,6.43
2023-05-22T09:47:38.271Z,5.20
2023-05-22T09:52:49.519Z,4.70
2023-05-22T09:58:00.939Z,4.50
2023-05-22T10:03:12.896Z,4.77
2023-05-22T10:08:26.083Z,4.80
2023-05-22T10:13:38.295Z,4.70
2023-05-22T10:18:50.008Z,4.00
2023-05-22T10:24:00.661Z,9.20
2023-05-22T10:29:10.726Z,4.40
2023-05-22T10:34:21.104Z,4.27
2023-05-22T10:39:32.063Z,4.37
2023-05-22T10:44:41.389Z,4.57
2023-05-22T10:50:01.346Z,4.50
2023-05-22T10:55:24.462Z,4.77
2023-05-22T11:00:43.283Z,4.40
2023-05-22T11:05:56.506Z,4.47
2023-05-22T11:11:08.908Z,4.40
2023-05-22T11:16:28.238Z,4.23
2023-05-22T11:21:52.415Z,4.93
2023-05-22T11:27:19.208Z,4.40
2023-05-22T11:32:35.393Z,4.83
2023-05-22T11:37:45.284Z,3.90
2023-05-22T11:42:54.507Z,3.90
2023-05-22T11:48:05.358Z,4.47
2023-05-22T11:53:15.865Z,4.90
2023-05-22T11:58:26.904Z,4.73
2023-05-22T12:03:35.106Z,4.70
2023-05-22T12:08:43.445Z,4.50
2023-05-22T12:13:55.370Z,4.40
2023-05-22T12:19:07.249Z,3.87
2023-05-22T12:24:15.952Z,4.00
2023-05-22T12:29:24.914Z,4.73
2023-05-22T12:34:35.138Z,4.70
2023-05-22T12:39:48.009Z,4.73
2023-05-22T12:44:58.221Z,3.90
2023-05-22T12:50:08.740Z,3.60
2023-05-22T12:55:18.968Z,3.93
2023-05-22T13:00:28.354Z,3.90
2023-05-22T13:05:38.150Z,3.77
2023-05-22T13:10:47.522Z,5.00
2023-05-22T13:15:55.537Z,5.70
2023-05-22T13:21:04.284Z,4.20
2023-05-22T13:26:12.392Z,4.50
2023-05-22T13:31:20.705Z,4.80
2023-05-22T13:36:28.181Z,4.33
2023-05-22T13:41:36.269Z,4.50
2023-05-22T13:46:44.488Z,4.07
2023-05-22T13:51:55.127Z,3.80
2023-05-22T13:57:03.184Z,3.90
2023-05-22T14:02:11.447Z,4.00
2023-05-22T14:07:24.360Z,3.97
2023-05-22T14:12:32.653Z,4.07
2023-05-22T14:17:41.621Z,3.90
2023-05-22T14:22:57.823Z,3.87
2023-05-22T14:28:05.971Z,3.90
2023-05-22T14:33:14.090Z,4.10
2023-05-22T14:38:23.798Z,4.10
2023-05-22T14:43:31.611Z,4.03
2023-05-22T14:48:40.526Z,4.23
2023-05-22T14:53:49.873Z,3.93
2023-05-22T14:58:58.162Z,4.03
2023-05-22T15:04:07.975Z,3.90
2023-05-22T15:09:17.378Z,3.90
2023-05-22T15:14:26.369Z,3.60
2023-05-22T15:19:35.170Z,4.40
2023-05-22T15:24:44.893Z,4.13
2023-05-22T15:29:53.009Z,4.00
2023-05-22T15:35:02.616Z,4.00
2023-05-22T15:40:12.468Z,3.70
2023-05-22T15:45:26.000Z,4.60
2023-05-22T15:50:37.287Z,5.00
2023-05-22T15:55:50.034Z,5.20
2023-05-22T16:01:01.734Z,4.47
2023-05-22T16:06:18.525Z,4.80
2023-05-22T16:11:33.681Z,5.30
2023-05-22T16:16:42.506Z,5.10
2023-05-22T16:21:50.864Z,5.10
2023-05-22T16:27:01.488Z,5.73
2023-05-22T16:37:43.379Z,5.57
2023-05-22T16:43:08.569Z,6.27
2023-05-22T16:48:16.911Z,6.13
2023-05-22T16:53:24.571Z,5.77
2023-05-22T16:58:33.352Z,5.57
2023-05-22T17:03:46.714Z,5.50
2023-05-22T17:08:56.625Z,5.77
2023-05-22T17:14:04.996Z,5.87
2023-05-22T17:19:13.656Z,6.13
2023-05-22T17:24:21.686Z,6.57
2023-05-22T17:29:29.910Z,6.33
2023-05-22T17:34:37.808Z,7.07
2023-05-22T17:39:47.379Z,7.33
2023-05-22T17:44:56.504Z,7.33
2023-05-22T17:50:04.707Z,7.13
2023-05-22T17:55:12.836Z,7.17
2023-05-22T18:00:20.680Z,7.93
2023-05-22T18:05:28.506Z,7.77
2023-05-22T18:10:37.251Z,7.60
2023-05-22T18:15:47.167Z,8.27
2023-05-22T18:20:57.414Z,7.60
2023-05-22T18:26:07.702Z,7.33
2023-05-22T18:31:19.106Z,7.10
2023-05-22T18:36:31.425Z,7.20
2023-05-22T18:41:41.426Z,7.40
2023-05-22T18:46:50.155Z,7.80
2023-05-22T18:52:03.595Z,7.33
2023-05-22T18:57:12.504Z,7.30
2023-05-22T19:02:23.303Z,7.10
2023-05-22T19:07:34.798Z,6.90
2023-05-22T19:12:45.742Z,5.70
2023-05-22T19:17:57.964Z,5.90
2023-05-22T19:23:09.353Z,5.67
2023-05-22T19:28:20.097Z,5.80
2023-05-22T19:33:31.387Z,5.43
2023-05-22T19:38:57.129Z,5.03
2023-05-22T19:44:21.915Z,4.30
2023-05-22T19:49:32.405Z,4.10
2023-05-22T19:54:40.498Z,4.03
2023-05-22T19:59:53.640Z,4.23
2023-05-22T20:05:04.321Z,3.83
2023-05-22T20:10:14.611Z,4.10
2023-05-22T20:15:23.693Z,3.80
2023-05-22T20:20:34.918Z,3.97
2023-05-22T20:25:42.757Z,3.90
2023-05-22T20:30:52.061Z,3.80
2023-05-22T20:36:01.454Z,3.83
2023-05-22T20:41:10.090Z,3.87
2023-05-22T20:46:20.161Z,3.73
2023-05-22T20:51:30.146Z,3.83
2023-05-22T20:56:38.491Z,4.13
2023-05-22T21:01:48.082Z,3.93
2023-05-22T21:06:56.603Z,3.53
2023-05-22T21:12:06.738Z,3.60
2023-05-22T21:17:15.932Z,3.80
2023-05-22T21:22:24.322Z,3.97
2023-05-22T21:27:32.356Z,4.10
2023-05-22T21:32:46.915Z,3.67
2023-05-22T21:37:55.779Z,3.83
2023-05-22T21:43:03.705Z,4.10
2023-05-22T21:48:12.577Z,3.87
2023-05-22T21:53:21.592Z,3.60
2023-05-22T21:58:32.980Z,4.17
2023-05-22T22:03:41.137Z,4.13
2023-05-22T22:08:49.590Z,4.00
2023-05-22T22:13:58.537Z,3.93
2023-05-22T22:19:06.654Z,4.40
2023-05-22T22:24:16.494Z,4.37
2023-05-22T22:29:24.791Z,4.50
2023-05-22T22:34:33.373Z,4.07
2023-05-22T22:39:41.534Z,4.70
2023-05-22T22:44:48.917Z,4.37
2023-05-22T22:49:57.712Z,4.50
2023-05-22T22:55:07.900Z,4.80
2023-05-22T23:00:16.575Z,4.27
2023-05-22T23:05:25.753Z,4.50
2023-05-22T23:10:33.492Z,4.60
2023-05-22T23:15:40.943Z,4.57
2023-05-22T23:20:49.767Z,4.63
2023-05-22T23:25:59.093Z,5.07
2023-05-22T23:31:10.780Z,5.10
2023-05-22T23:36:19.831Z,4.97
2023-05-22T23:41:29.654Z,5.40
2023-05-22T23:46:41.656Z,5.30
2023-05-22T23:51:48.917Z,5.53
2023-05-22T23:56:57.294Z,5.40
